Time;durP1;ratioP1;P1;durP2;ratioP2;P2;SDS_P1;SDS_P2;PMS_P1;PMS_P2;Temp;Humidity;BMP_temperature;BMP_pressure;BME280_temperature;BME280_humidity;BME280_pressure;Samples;Min_cycle;Max_cycle;Signal;HPM_P1;HPM_P2
2023/11/04 00:00:37;;;;;;;2.77;0.90;;;9.20;1.00;;;;;;5023288;28;20456;-80
2023/11/04 00:03:04;;;;;;;4.23;1.00;;;9.20;1.00;;;;;;5024244;28;20492;-81
2023/11/04 00:05:31;;;;;;;3.70;1.20;;;9.20;99.90;;;;;;5023069;28;20523;-81
2023/11/04 00:07:58;;;;;;;2.93;1.83;;;9.20;99.90;;;;;;5021940;28;20461;-81
2023/11/04 00:10:25;;;;;;;4.67;1.30;;;9.20;99.90;;;;;;5024267;28;20486;-80
2023/11/04 00:12:54;;;;;;;1.90;1.07;;;9.10;99.90;;;;;;5023518;28;20540;-81
2023/11/04 00:15:21;;;;;;;3.50;1.43;;;9.10;99.90;;;;;;5017609;28;20492;-80
2023/11/04 00:17:49;;;;;;;2.80;1.00;;;9.10;92.80;;;;;;5023646;28;20549;-81
2023/11/04 00:20:18;;;;;;;6.80;1.10;;;9.00;99.90;;;;;;5024455;28;20523;-81
2023/11/04 00:22:45;;;;;;;2.50;1.27;;;9.10;99.90;;;;;;5018306;28;20540;-82
2023/11/04 00:25:11;;;;;;;2.73;1.70;;;9.00;99.90;;;;;;5014902;28;20488;-81
2023/11/04 00:27:38;;;;;;;3.20;1.30;;;9.00;99.90;;;;;;5014350;28;20473;-82
2023/11/04 00:30:06;;;;;;;2.73;1.17;;;9.10;99.90;;;;;;5014252;28;20543;-82
2023/11/04 00:32:34;;;;;;;5.20;1.40;;;9.00;99.90;;;;;;5014835;28;20965;-81
2023/11/04 00:35:03;;;;;;;2.37;1.47;;;9.10;99.90;;;;;;5014640;28;20840;-82
2023/11/04 00:37:30;;;;;;;3.40;1.10;;;9.00;99.90;;;;;;5013546;28;20460;-82
2023/11/04 00:39:57;;;;;;;5.73;1.47;;;9.10;91.80;;;;;;5012507;28;20448;-82
2023/11/04 00:42:24;;;;;;;2.07;0.90;;;9.10;99.90;;;;;;5015926;28;20471;-82
2023/11/04 00:44:51;;;;;;;2.27;1.30;;;9.10;99.90;;;;;;5012337;28;20560;-81
2023/11/04 00:47:18;;;;;;;1.70;0.90;;;9.20;99.90;;;;;;5017388;28;20495;-81
2023/11/04 00:49:45;;;;;;;3.20;1.07;;;9.20;99.90;;;;;;5018640;28;20477;-81
2023/11/04 00:52:13;;;;;;;2.20;1.10;;;9.10;1.00;;;;;;5019234;28;20444;-81
2023/11/04 00:54:40;;;;;;;1.97;0.90;;;9.10;99.90;;;;;;5018168;28;20493;-81
2023/11/04 00:57:10;;;;;;;1.80;0.90;;;9.30;99.90;;;;;;5018007;28;20524;-81
2023/11/04 00:59:36;;;;;;;3.73;1.00;;;9.30;99.90;;;;;;5015900;28;20948;-79
2023/11/04 01:02:05;;;;;;;2.30;1.00;;;9.30;99.90;;;;;;5017437;28;20452;-80
2023/11/04 01:04:31;;;;;;;3.00;0.90;;;9.30;1.00;;;;;;5016847;28;20565;-81
2023/11/04 01:06:58;;;;;;;2.33;0.87;;;9.20;99.90;;;;;;5017631;28;20452;-81
2023/11/04 01:09:26;;;;;;;3.20;0.93;;;9.20;99.90;;;;;;5014599;28;20458;-80
2023/11/04 01:11:53;;;;;;;2.03;0.90;;;9.30;1.00;;;;;;5018544;28;20459;-81
2023/11/04 01:14:20;;;;;;;2.13;0.90;;;9.30;1.00;;;;;;5017057;28;21002;-80
2023/11/04 01:16:47;;;;;;;1.90;0.80;;;9.30;1.00;;;;;;5017348;28;20983;-80
2023/11/04 01:19:16;;;;;;;1.73;0.80;;;9.30;1.00;;;;;;5010527;28;20463;-80
2023/11/04 01:21:46;;;;;;;1.90;0.80;;;9.30;1.00;;;;;;5011311;28;20468;-81
2023/11/04 01:24:13;;;;;;;2.10;0.80;;;9.40;99.90;;;;;;5018264;28;20504;-80
2023/11/04 01:26:41;;;;;;;1.70;0.83;;;9.30;99.90;;;;;;5018572;28;20460;-81
2023/11/04 01:29:10;;;;;;;2.00;0.93;;;9.40;99.90;;;;;;5017492;28;20460;-80
2023/11/04 01:31:37;;;;;;;2.33;0.90;;;9.40;99.90;;;;;;5018413;28;20464;-80
2023/11/04 01:34:04;;;;;;;1.60;1.00;;;9.30;1.00;;;;;;5018240;28;20467;-80
2023/11/04 01:36:31;;;;;;;3.67;0.80;;;9.30;1.00;;;;;;5017968;28;20461;-80
2023/11/04 01:38:57;;;;;;;1.57;0.70;;;9.40;99.90;;;;;;5016758;28;20465;-79
2023/11/04 01:41:24;;;;;;;1.90;0.80;;;9.40;1.00;;;;;;5018271;28;20464;-79
2023/11/04 01:43:52;;;;;;;5.73;1.13;;;9.40;99.90;;;;;;5016517;28;20495;-80
2023/11/04 01:46:22;;;;;;;1.60;0.90;;;9.50;99.90;;;;;;5018147;28;20983;-82
2023/11/04 01:48:49;;;;;;;2.53;0.90;;;9.50;99.90;;;;;;5016127;28;20808;-80
2023/11/04 01:51:16;;;;;;;1.50;0.70;;;9.60;99.90;;;;;;5018511;28;20459;-82
2023/11/04 01:53:48;;;;;;;1.97;0.70;;;9.70;99.90;;;;;;5020884;28;20491;-81
2023/11/04 01:56:21;;;;;;;3.03;0.70;;;9.70;99.90;;;;;;5018788;28;20463;-80
2023/11/04 01:58:49;;;;;;;1.50;0.60;;;9.70;99.90;;;;;;5016128;28;20555;-80
2023/11/04 02:01:20;;;;;;;1.60;0.70;;;9.80;1.00;;;;;;5018275;28;20461;-80
2023/11/04 02:03:47;;;;;;;1.80;0.80;;;9.80;1.00;;;;;;5018962;28;20504;-78
2023/11/04 02:06:14;;;;;;;2.23;0.70;;;9.70;1.00;;;;;;5017242;28;21041;-79
2023/11/04 02:08:43;;;;;;;1.50;0.70;;;9.80;99.90;;;;;;5017276;28;20459;-80
2023/11/04 02:11:10;;;;;;;2.60;0.70;;;9.80;99.90;;;;;;5017768;28;20846;-80
2023/11/04 02:13:37;;;;;;;2.00;0.70;;;9.90;99.90;;;;;;5017812;28;20481;-80
2023/11/04 02:16:05;;;;;;;1.90;0.80;;;9.90;1.00;;;;;;5018494;28;20540;-80
2023/11/04 02:18:33;;;;;;;1.60;0.70;;;9.90;31.30;;;;;;5017307;28;20485;-80
2023/11/04 02:21:01;;;;;;;1.70;0.60;;;9.90;1.30;;;;;;5015742;28;20464;-80
2023/11/04 02:23:29;;;;;;;2.47;0.70;;;9.90;99.90;;;;;;5016687;28;20459;-80
2023/11/04 02:25:56;;;;;;;1.63;0.80;;;9.80;99.90;;;;;;5019316;28;20579;-80
2023/11/04 02:28:28;;;;;;;1.83;0.80;;;9.90;1.00;;;;;;5017342;28;20456;-82
2023/11/04 02:30:55;;;;;;;1.50;0.60;;;9.90;63.30;;;;;;5017748;28;20487;-81
2023/11/04 02:33:26;;;;;;;3.63;0.90;;;10.00;99.90;;;;;;5019973;28;20468;-81
2023/11/04 02:35:52;;;;;;;1.60;0.60;;;9.90;99.90;;;;;;5018392;28;20833;-80
2023/11/04 02:38:22;;;;;;;2.07;0.83;;;9.90;99.90;;;;;;5007329;28;20493;-80
2023/11/04 02:40:51;;;;;;;1.80;0.77;;;9.90;1.00;;;;;;5015376;28;20464;-80
2023/11/04 02:43:18;;;;;;;5.43;1.00;;;10.00;99.90;;;;;;5016218;28;20462;-80
2023/11/04 02:45:46;;;;;;;1.93;0.67;;;9.90;99.90;;;;;;5015668;28;20493;-81
2023/11/04 02:48:13;;;;;;;1.50;0.60;;;9.90;1.00;;;;;;5015486;28;20505;-80
2023/11/04 02:50:40;;;;;;;1.67;0.60;;;9.90;99.90;;;;;;5015956;28;20453;-80
2023/11/04 02:53:07;;;;;;;2.53;0.70;;;10.10;99.90;;;;;;5016256;28;20469;-81
2023/11/04 02:55:35;;;;;;;1.50;0.60;;;10.00;99.90;;;;;;5016299;28;20553;-81
2023/11/04 02:58:02;;;;;;;1.80;0.70;;;10.10;1.00;;;;;;5015037;28;20880;-80
2023/11/04 03:00:28;;;;;;;1.80;0.90;;;10.10;1.00;;;;;;5016528;28;20544;-79
2023/11/04 03:02:55;;;;;;;1.50;0.60;;;10.10;1.00;;;;;;5015308;28;20956;-82
2023/11/04 03:05:22;;;;;;;1.60;0.77;;;10.00;1.00;;;;;;5016623;28;20496;-79
2023/11/04 03:07:49;;;;;;;1.70;0.70;;;10.10;1.00;;;;;;5015738;28;20461;-79
2023/11/04 03:10:16;;;;;;;3.10;0.70;;;10.10;1.00;;;;;;5016036;28;20456;-80
2023/11/04 03:12:44;;;;;;;1.87;0.73;;;10.10;99.90;;;;;;5011566;28;20464;-80
2023/11/04 03:15:11;;;;;;;2.00;0.90;;;10.10;1.00;;;;;;5015593;28;20497;-80
2023/11/04 03:17:38;;;;;;;1.77;0.57;;;10.10;1.00;;;;;;5015206;28;20471;-80
2023/11/04 03:20:08;;;;;;;1.70;0.67;;;10.10;99.90;;;;;;5013419;28;20457;-79
2023/11/04 03:22:35;;;;;;;1.70;0.60;;;10.10;1.00;;;;;;5009660;28;21057;-79
2023/11/04 03:25:03;;;;;;;1.80;0.70;;;10.20;79.00;;;;;;5015008;28;20524;-78
2023/11/04 03:27:31;;;;;;;1.87;0.70;;;10.20;1.00;;;;;;5016040;28;20474;-79
2023/11/04 03:29:59;;;;;;;2.00;0.77;;;10.20;99.90;;;;;;5015253;28;20969;-79
2023/11/04 03:32:26;;;;;;;1.57;0.73;;;10.10;38.90;;;;;;5014827;28;20456;-80
2023/11/04 03:34:53;;;;;;;3.70;0.80;;;10.20;99.90;;;;;;5014540;28;20472;-79
2023/11/04 03:37:20;;;;;;;2.20;0.70;;;10.20;99.90;;;;;;5015903;28;20457;-80
2023/11/04 03:39:47;;;;;;;1.90;0.70;;;10.20;1.00;;;;;;5019493;28;20455;-80
2023/11/04 03:42:14;;;;;;;2.10;0.70;;;10.10;1.00;;;;;;5016289;28;20470;-81
2023/11/04 03:44:40;;;;;;;2.47;0.77;;;10.10;99.90;;;;;;5016240;28;20497;-81
2023/11/04 03:47:09;;;;;;;1.90;0.83;;;10.10;99.90;;;;;;5019019;28;20461;-82
2023/11/04 03:49:37;;;;;;;1.93;0.87;;;10.00;99.90;;;;;;5017295;28;20984;-81
2023/11/04 03:52:07;;;;;;;2.07;0.90;;;10.10;1.00;;;;;;5017582;28;20489;-81
2023/11/04 03:54:35;;;;;;;1.93;0.80;;;10.20;1.00;;;;;;5018983;28;20500;-81
2023/11/04 03:57:01;;;;;;;1.60;0.70;;;10.10;99.90;;;;;;5017732;28;20457;-82
2023/11/04 03:59:28;;;;;;;1.60;0.70;;;10.20;99.90;;;;;;5015527;28;20545;-82
2023/11/04 04:01:55;;;;;;;1.50;0.60;;;10.10;1.00;;;;;;5017856;28;20455;-82
2023/11/04 04:04:23;;;;;;;1.60;0.70;;;10.00;1.00;;;;;;5016551;28;20508;-82
2023/11/04 04:06:50;;;;;;;1.90;0.60;;;10.10;15.10;;;;;;5017432;28;20553;-81
2023/11/04 04:09:17;;;;;;;1.50;0.63;;;10.10;1.00;;;;;;5016580;28;20969;-81
2023/11/04 04:11:44;;;;;;;2.90;0.80;;;10.10;1.00;;;;;;5015718;28;20462;-80
2023/11/04 04:14:13;;;;;;;1.50;0.60;;;10.20;99.90;;;;;;5017877;28;20476;-79
2023/11/04 04:16:48;;;;;;;1.50;0.70;;;10.10;99.90;;;;;;5019613;28;20471;-79
2023/11/04 04:19:15;;;;;;;1.60;0.60;;;10.10;99.90;;;;;;5017858;28;20897;-79
2023/11/04 04:21:49;;;;;;;1.57;0.70;;;10.20;93.80;;;;;;5018856;28;20548;-81
2023/11/04 04:24:16;;;;;;;2.83;0.70;;;10.10;99.90;;;;;;5018305;28;20544;-80
2023/11/04 04:26:43;;;;;;;2.33;0.70;;;10.10;99.90;;;;;;5017877;28;20838;-79
2023/11/04 04:29:10;;;;;;;1.50;0.60;;;10.20;32.90;;;;;;5017127;28;20464;-80
2023/11/04 04:31:36;;;;;;;1.60;0.80;;;10.20;99.90;;;;;;5018221;28;20844;-80
2023/11/04 04:34:03;;;;;;;3.10;0.97;;;10.20;99.90;;;;;;5018964;28;20513;-79
2023/11/04 04:36:30;;;;;;;2.53;0.70;;;10.20;1.00;;;;;;5013350;28;20458;-81
2023/11/04 04:38:58;;;;;;;1.47;0.60;;;10.20;1.00;;;;;;5016512;28;20454;-80
2023/11/04 04:41:26;;;;;;;1.70;0.80;;;10.10;99.90;;;;;;5017124;28;20454;-78
2023/11/04 04:43:53;;;;;;;2.57;0.80;;;10.10;99.90;;;;;;5018694;28;20485;-79
2023/11/04 04:46:20;;;;;;;1.73;0.60;;;10.20;99.90;;;;;;5017927;28;20494;-79
2023/11/04 04:48:46;;;;;;;3.23;0.70;;;10.10;99.90;;;;;;5017444;28;20456;-80
2023/11/04 04:51:16;;;;;;;1.50;0.60;;;10.20;1.00;;;;;;5016900;28;20469;-80
2023/11/04 04:53:43;;;;;;;1.90;0.70;;;10.20;99.90;;;;;;5018633;28;20488;-80
2023/11/04 04:56:15;;;;;;;2.13;0.80;;;10.10;99.90;;;;;;5018040;28;20452;-80
2023/11/04 04:58:42;;;;;;;2.13;0.60;;;10.10;99.90;;;;;;5017198;28;20461;-80
2023/11/04 05:01:17;;;;;;;1.60;0.80;;;10.20;99.90;;;;;;5008962;28;20465;-79
2023/11/04 05:03:44;;;;;;;2.80;0.90;;;10.20;1.00;;;;;;5017204;28;20484;-81
2023/11/04 05:06:13;;;;;;;1.57;0.70;;;10.20;1.00;;;;;;5016206;28;21026;-80
2023/11/04 05:08:40;;;;;;;1.60;0.80;;;10.20;1.00;;;;;;5018123;28;20547;-82
2023/11/04 05:11:08;;;;;;;1.90;0.80;;;10.20;1.00;;;;;;5018851;28;21043;-81
2023/11/04 05:13:37;;;;;;;1.50;0.80;;;10.20;1.00;;;;;;5017378;28;20457;-82
2023/11/04 05:16:04;;;;;;;1.57;0.90;;;10.20;1.00;;;;;;5018699;28;20453;-81
2023/11/04 05:18:31;;;;;;;1.70;0.70;;;10.20;1.00;;;;;;5017484;28;20976;-81
2023/11/04 05:21:01;;;;;;;2.10;0.80;;;10.20;1.00;;;;;;5017736;28;20540;-82
2023/11/04 05:23:28;;;;;;;1.50;0.70;;;10.20;1.00;;;;;;5018043;28;20878;-81
2023/11/04 05:25:55;;;;;;;1.90;0.80;;;10.20;1.00;;;;;;5017380;28;20499;-82
2023/11/04 05:28:26;;;;;;;1.50;0.80;;;10.20;1.00;;;;;;5017919;28;20507;-80
2023/11/04 05:30:57;;;;;;;3.50;0.90;;;10.30;1.00;;;;;;5017775;28;20913;-81
2023/11/04 05:33:26;;;;;;;1.67;0.77;;;10.20;1.00;;;;;;5016905;28;20468;-78
2023/11/04 05:35:53;;;;;;;1.40;0.60;;;10.30;1.00;;;;;;5018327;28;20446;-79
2023/11/04 05:38:20;;;;;;;3.30;0.90;;;10.40;99.90;;;;;;5017183;28;20456;-79
2023/11/04 05:40:47;;;;;;;1.60;0.60;;;10.30;99.90;;;;;;5018663;28;20637;-78
2023/11/04 05:43:14;;;;;;;3.00;0.90;;;10.30;99.90;;;;;;5018850;28;20446;-80
2023/11/04 05:45:40;;;;;;;1.40;0.70;;;10.30;1.00;;;;;;5020880;28;20504;-79
2023/11/04 05:48:09;;;;;;;1.70;0.77;;;10.30;1.00;;;;;;5019882;28;20469;-80
2023/11/04 05:50:40;;;;;;;1.93;0.70;;;10.40;99.90;;;;;;5018663;28;20461;-81
2023/11/04 05:53:06;;;;;;;2.77;1.03;;;10.30;1.00;;;;;;5017985;28;20465;-81
2023/11/04 05:55:33;;;;;;;3.57;0.70;;;10.30;1.00;;;;;;5016817;28;20474;-82
2023/11/04 05:58:01;;;;;;;1.70;0.70;;;10.40;1.00;;;;;;5016151;28;20464;-80
2023/11/04 06:00:28;;;;;;;1.60;0.70;;;10.30;1.00;;;;;;5016106;28;20462;-79
2023/11/04 06:03:04;;;;;;;2.40;0.70;;;10.40;1.00;;;;;;5016400;28;20462;-79
2023/11/04 06:05:33;;;;;;;1.57;0.80;;;10.30;99.90;;;;;;5016691;28;21012;-78
2023/11/04 06:08:07;;;;;;;1.77;0.83;;;10.40;1.00;;;;;;5015476;28;20864;-79
2023/11/04 06:10:34;;;;;;;2.00;0.90;;;10.40;99.90;;;;;;5013583;28;20559;-79
2023/11/04 06:13:01;;;;;;;1.80;0.70;;;10.30;99.90;;;;;;5015352;28;21023;-79
2023/11/04 06:15:27;;;;;;;2.47;0.80;;;10.30;1.00;;;;;;5012776;28;20500;-79
2023/11/04 06:17:54;;;;;;;1.70;0.80;;;10.40;1.00;;;;;;5016312;28;20530;-78
2023/11/04 06:20:21;;;;;;;4.90;0.87;;;10.40;1.00;;;;;;5015269;28;20468;-79
2023/11/04 06:22:49;;;;;;;1.80;0.80;;;10.30;1.00;;;;;;5015382;28;20453;-78
2023/11/04 06:25:16;;;;;;;1.53;0.77;;;10.40;1.00;;;;;;5014609;28;20521;-80
2023/11/04 06:27:42;;;;;;;3.30;0.80;;;10.30;1.00;;;;;;5015374;28;20460;-79
2023/11/04 06:30:10;;;;;;;1.90;0.87;;;10.30;1.00;;;;;;5014964;28;20468;-79
2023/11/04 06:32:37;;;;;;;1.40;0.50;;;10.30;1.00;;;;;;5013946;28;20456;-79
2023/11/04 06:35:06;;;;;;;2.13;0.70;;;10.30;1.00;;;;;;5015612;28;20469;-77
2023/11/04 06:37:33;;;;;;;2.70;0.80;;;10.30;1.00;;;;;;5016993;28;20457;-77
2023/11/04 06:40:01;;;;;;;1.50;0.60;;;10.20;1.00;;;;;;5016589;28;20491;-80
2023/11/04 06:42:27;;;;;;;2.50;0.60;;;10.30;1.00;;;;;;5017427;28;20461;-78
2023/11/04 06:44:54;;;;;;;2.83;0.83;;;10.20;1.00;;;;;;5016744;28;20480;-79
2023/11/04 06:47:23;;;;;;;1.40;0.60;;;10.30;1.00;;;;;;5017646;28;20821;-79
2023/11/04 06:49:50;;;;;;;2.57;0.80;;;10.30;1.00;;;;;;5018487;28;20906;-80
2023/11/04 06:52:16;;;;;;;1.60;0.70;;;10.30;1.00;;;;;;5018007;28;20953;-80
2023/11/04 06:54:43;;;;;;;3.13;0.70;;;10.40;1.00;;;;;;5018486;28;20854;-80
2023/11/04 06:57:12;;;;;;;3.30;1.13;;;10.40;1.00;;;;;;5019586;28;20480;-80
2023/11/04 06:59:40;;;;;;;1.50;0.70;;;10.40;1.00;;;;;;5016824;28;20445;-79
2023/11/04 07:02:07;;;;;;;1.40;0.60;;;10.40;1.00;;;;;;5015199;28;20516;-79
2023/11/04 07:04:34;;;;;;;1.80;0.70;;;10.30;1.00;;;;;;5013031;28;20487;-80
2023/11/04 07:07:01;;;;;;;2.57;0.80;;;10.30;1.00;;;;;;5016200;28;20511;-80
2023/11/04 07:09:28;;;;;;;1.50;0.70;;;10.30;1.00;;;;;;5017402;28;20942;-79
2023/11/04 07:11:55;;;;;;;1.40;0.70;;;10.20;89.80;;;;;;5018980;28;20843;-79
2023/11/04 07:14:24;;;;;;;1.97;0.83;;;10.10;1.00;;;;;;5020577;28;20488;-78
2023/11/04 07:16:51;;;;;;;1.53;0.80;;;10.20;32.10;;;;;;5017534;28;20506;-80
2023/11/04 07:19:17;;;;;;;1.50;0.70;;;10.10;99.90;;;;;;5014045;28;20460;-80
2023/11/04 07:21:45;;;;;;;2.23;0.60;;;9.90;99.90;;;;;;5017618;28;20815;-79
2023/11/04 07:24:12;;;;;;;5.37;0.90;;;10.00;99.90;;;;;;5017254;28;20510;-79
2023/11/04 07:26:39;;;;;;;2.37;1.10;;;10.00;99.90;;;;;;5016444;28;20496;-79
2023/11/04 07:29:06;;;;;;;2.00;0.80;;;10.00;99.90;;;;;;5012955;28;20469;-79
2023/11/04 07:31:35;;;;;;;1.60;0.80;;;10.10;99.90;;;;;;5019401;28;20517;-80
2023/11/04 07:34:02;;;;;;;1.77;0.60;;;10.20;99.90;;;;;;5019221;28;20495;-79
2023/11/04 07:36:29;;;;;;;1.63;0.70;;;10.20;99.90;;;;;;5020339;28;20453;-80
2023/11/04 07:38:56;;;;;;;2.47;0.70;;;10.20;77.50;;;;;;5016283;28;20454;-80
2023/11/04 07:41:23;;;;;;;1.70;0.70;;;10.30;99.90;;;;;;5021572;28;20890;-78
2023/11/04 07:43:50;;;;;;;2.00;0.67;;;10.30;1.00;;;;;;5013220;28;20498;-79
2023/11/04 07:46:17;;;;;;;3.10;0.90;;;10.40;99.90;;;;;;5017436;28;20493;-80
2023/11/04 07:48:45;;;;;;;1.60;0.80;;;10.50;18.10;;;;;;5017743;28;20454;-80
2023/11/04 07:51:12;;;;;;;1.40;0.60;;;10.60;99.90;;;;;;5012377;28;20463;-79
2023/11/04 07:53:38;;;;;;;2.43;0.90;;;10.60;1.00;;;;;;5013982;28;20515;-80
2023/11/04 07:56:06;;;;;;;2.00;0.70;;;10.70;1.00;;;;;;5019264;28;20471;-79
2023/11/04 07:58:33;;;;;;;1.50;0.80;;;10.70;1.00;;;;;;5020932;28;20488;-80
2023/11/04 08:01:00;;;;;;;4.90;0.70;;;10.80;1.00;;;;;;5021807;28;20580;-79
2023/11/04 08:03:27;;;;;;;1.40;0.70;;;10.90;1.00;;;;;;5022240;28;20488;-81
2023/11/04 08:05:58;;;;;;;2.10;0.80;;;10.90;99.90;;;;;;5018088;28;20489;-80
2023/11/04 08:08:25;;;;;;;2.90;0.73;;;11.00;1.00;;;;;;5018361;28;20457;-80
2023/11/04 08:10:52;;;;;;;2.27;0.50;;;11.20;1.00;;;;;;5023649;28;20960;-80
2023/11/04 08:13:20;;;;;;;1.70;0.63;;;11.20;1.00;;;;;;5023234;28;20468;-81
2023/11/04 08:15:46;;;;;;;1.80;0.80;;;11.20;32.30;;;;;;5024329;28;20500;-81
2023/11/04 08:18:13;;;;;;;1.53;0.70;;;11.20;99.90;;;;;;5023834;28;20545;-81
2023/11/04 08:20:40;;;;;;;1.80;0.90;;;11.30;99.90;;;;;;5023059;28;20485;-81
2023/11/04 08:23:08;;;;;;;3.63;1.00;;;11.40;1.00;;;;;;5021438;28;20910;-81
2023/11/04 08:25:36;;;;;;;1.60;0.80;;;11.50;1.00;;;;;;5020768;28;20474;-83
2023/11/04 08:28:02;;;;;;;2.00;0.90;;;11.50;1.00;;;;;;5017717;28;20460;-81
2023/11/04 08:30:29;;;;;;;1.60;0.80;;;11.50;99.90;;;;;;5021571;28;20460;-79
2023/11/04 08:32:56;;;;;;;2.50;1.40;;;11.50;99.90;;;;;;5022451;28;20458;-80
2023/11/04 08:35:23;;;;;;;1.73;0.70;;;11.40;1.00;;;;;;5023095;28;20477;-80
2023/11/04 08:37:50;;;;;;;2.17;0.77;;;11.60;99.90;;;;;;5022968;28;21038;-79
2023/11/04 08:40:19;;;;;;;2.23;0.70;;;11.70;1.00;;;;;;5022585;28;20461;-79
2023/11/04 08:42:45;;;;;;;2.37;0.70;;;11.60;99.90;;;;;;5022979;28;20585;-80
2023/11/04 08:45:13;;;;;;;1.63;0.70;;;11.60;99.90;;;;;;5020095;28;20552;-81
2023/11/04 08:47:41;;;;;;;3.20;0.70;;;11.40;26.90;;;;;;5017861;28;20492;-80
2023/11/04 08:50:09;;;;;;;6.07;0.90;;;11.60;99.90;;;;;;5016776;28;20528;-80
2023/11/04 08:52:35;;;;;;;1.50;0.70;;;11.80;99.90;;;;;;5013013;28;20458;-79
2023/11/04 08:55:04;;;;;;;3.90;0.80;;;12.00;99.90;;;;;;5015394;28;20474;-79
2023/11/04 08:57:33;;;;;;;2.43;1.00;;;12.20;12.20;;;;;;5015146;28;20461;-80
2023/11/04 09:00:00;;;;;;;2.67;0.70;;;12.30;1.00;;;;;;5015839;28;20494;-78
2023/11/04 09:02:27;;;;;;;1.60;0.70;;;12.20;1.00;;;;;;5014521;28;20537;-80
2023/11/04 09:04:54;;;;;;;1.63;0.77;;;12.20;6.60;;;;;;5014568;28;21201;-79
2023/11/04 09:07:21;;;;;;;4.07;0.80;;;12.30;1.00;;;;;;5015350;28;20519;-80
2023/11/04 09:09:47;;;;;;;3.73;0.90;;;12.30;99.90;;;;;;5019089;28;20470;-80
2023/11/04 09:12:15;;;;;;;1.63;0.80;;;12.30;99.90;;;;;;5018973;28;20463;-80
2023/11/04 09:14:43;;;;;;;3.27;0.90;;;12.30;99.90;;;;;;5019126;28;20505;-79
2023/11/04 09:17:10;;;;;;;1.50;0.70;;;12.20;99.90;;;;;;5018876;28;20447;-80
2023/11/04 09:19:36;;;;;;;1.60;0.90;;;12.20;99.90;;;;;;5018299;28;20488;-79
2023/11/04 09:22:03;;;;;;;2.90;0.90;;;12.20;1.00;;;;;;5019047;28;21034;-80
2023/11/04 09:24:31;;;;;;;2.40;0.80;;;12.20;1.00;;;;;;5019236;28;20522;-79
2023/11/04 09:26:58;;;;;;;1.50;0.73;;;12.30;99.90;;;;;;5018477;28;20494;-78
2023/11/04 09:29:25;;;;;;;2.77;0.80;;;12.20;99.90;;;;;;5014397;28;20463;-79
2023/11/04 09:31:54;;;;;;;1.40;0.63;;;12.20;99.90;;;;;;5014617;28;20950;-79
2023/11/04 09:34:20;;;;;;;1.70;0.90;;;12.30;99.90;;;;;;5012231;28;20874;-80
2023/11/04 09:36:47;;;;;;;2.60;0.93;;;12.40;1.00;;;;;;5022087;28;20450;-79
2023/11/04 09:39:16;;;;;;;2.27;0.80;;;12.50;99.90;;;;;;5022139;28;20457;-80
2023/11/04 09:41:43;;;;;;;2.37;1.10;;;12.70;99.90;;;;;;5023857;28;20453;-80
2023/11/04 09:44:10;;;;;;;1.87;0.90;;;12.70;1.00;;;;;;5022161;28;20471;-79
2023/11/04 09:46:37;;;;;;;1.70;1.00;;;12.80;99.90;;;;;;5021454;28;20488;-80
2023/11/04 09:49:05;;;;;;;3.30;0.90;;;13.00;1.00;;;;;;5022060;28;20552;-80
2023/11/04 09:51:33;;;;;;;2.47;1.00;;;12.90;1.00;;;;;;5022923;28;20516;-80
2023/11/04 09:54:03;;;;;;;2.63;0.90;;;12.70;99.90;;;;;;5022005;28;20477;-81
2023/11/04 09:56:30;;;;;;;1.80;0.87;;;12.70;99.90;;;;;;5023183;28;20478;-79
2023/11/04 09:58:57;;;;;;;3.80;1.00;;;12.50;29.80;;;;;;5022537;28;20462;-79
2023/11/04 10:01:24;;;;;;;2.60;0.90;;;12.60;99.90;;;;;;5021442;28;20542;-79
2023/11/04 10:03:51;;;;;;;1.70;0.90;;;12.70;1.00;;;;;;5022609;28;20535;-81
2023/11/04 10:06:19;;;;;;;1.60;0.90;;;12.80;95.20;;;;;;5017139;28;21041;-79
2023/11/04 10:08:49;;;;;;;102.77;45.70;;;12.70;99.90;;;;;;5025356;28;20447;-80
2023/11/04 10:11:16;;;;;;;3.50;2.07;;;12.70;99.90;;;;;;5024507;28;20529;-80
2023/11/04 10:13:42;;;;;;;1.83;1.00;;;12.70;99.90;;;;;;5026015;28;20502;-80
2023/11/04 10:16:10;;;;;;;2.10;1.00;;;12.70;1.00;;;;;;5025868;28;20455;-80
2023/11/04 10:18:42;;;;;;;2.43;1.00;;;12.70;1.00;;;;;;5025566;28;20893;-80
2023/11/04 10:21:09;;;;;;;2.00;1.10;;;12.70;1.00;;;;;;5024587;28;20973;-80
2023/11/04 10:23:37;;;;;;;2.23;0.80;;;12.70;1.00;;;;;;5024389;28;20554;-81
2023/11/04 10:26:05;;;;;;;3.53;1.23;;;12.80;1.00;;;;;;5022138;28;20460;-79
2023/11/04 10:28:32;;;;;;;1.70;0.93;;;12.80;1.00;;;;;;5022876;28;20463;-80
2023/11/04 10:31:04;;;;;;;2.00;0.70;;;12.90;99.90;;;;;;5022794;28;20465;-80
2023/11/04 10:33:34;;;;;;;3.40;0.97;;;13.10;24.30;;;;;;5022546;28;20468;-79
2023/11/04 10:36:03;;;;;;;1.70;0.80;;;13.30;34.70;;;;;;5023329;28;20517;-79
2023/11/04 10:38:33;;;;;;;1.80;0.90;;;13.20;99.90;;;;;;5019347;28;20513;-79
2023/11/04 10:41:04;;;;;;;2.43;0.97;;;13.30;1.00;;;;;;5019903;28;20452;-79
2023/11/04 10:43:41;;;;;;;1.73;0.97;;;13.40;1.00;;;;;;5020432;28;20498;-80
2023/11/04 10:46:14;;;;;;;4.00;1.07;;;13.40;99.90;;;;;;5019550;28;20480;-79
2023/11/04 10:48:46;;;;;;;2.30;0.90;;;13.40;99.90;;;;;;5022125;28;20482;-80
2023/11/04 10:51:18;;;;;;;3.70;0.93;;;13.30;99.90;;;;;;5020214;28;20455;-80
2023/11/04 10:53:58;;;;;;;2.73;1.20;;;13.30;1.00;;;;;;5020267;28;20483;-80
2023/11/04 10:56:30;;;;;;;1.67;0.80;;;13.30;1.00;;;;;;5015992;28;20457;-80
2023/11/04 10:59:07;;;;;;;5.10;1.10;;;13.30;99.90;;;;;;5021052;28;20538;-80
2023/11/04 11:01:35;;;;;;;1.60;0.80;;;13.10;99.90;;;;;;5021402;28;20455;-79
2023/11/04 11:04:03;;;;;;;3.10;0.90;;;13.10;99.90;;;;;;5020183;28;20491;-79
2023/11/04 11:06:30;;;;;;;1.90;0.93;;;13.10;99.90;;;;;;5020082;28;20446;-80
2023/11/04 11:09:00;;;;;;;3.20;1.10;;;13.10;1.00;;;;;;5020678;28;20445;-80
2023/11/04 11:11:40;;;;;;;4.13;1.00;;;12.90;99.90;;;;;;5019665;28;20462;-80
2023/11/04 11:14:07;;;;;;;3.50;0.90;;;12.90;99.90;;;;;;5018268;28;20502;-78
2023/11/04 11:16:34;;;;;;;3.93;0.93;;;12.90;1.00;;;;;;5018893;28;20454;-79
2023/11/04 11:19:08;;;;;;;2.90;0.90;;;13.10;1.00;;;;;;5019609;28;20816;-79
2023/11/04 11:21:49;;;;;;;2.10;1.00;;;13.00;1.00;;;;;;5020359;28;20457;-80
2023/11/04 11:24:22;;;;;;;2.57;1.10;;;13.00;1.00;;;;;;5019367;28;20561;-79
2023/11/04 11:27:11;;;;;;;2.63;1.13;;;12.90;1.00;;;;;;5016469;28;20492;-78
2023/11/04 11:29:53;;;;;;;3.10;0.77;;;12.80;1.00;;;;;;5014339;28;20535;-78
2023/11/04 11:32:20;;;;;;;2.40;0.80;;;12.70;1.00;;;;;;5016048;28;20541;-80
2023/11/04 11:34:51;;;;;;;2.90;1.37;;;12.50;99.90;;;;;;5019618;28;20471;-79
2023/11/04 11:37:20;;;;;;;4.37;1.77;;;12.40;99.90;;;;;;5020495;28;20548;-80
2023/11/04 11:39:47;;;;;;;2.43;1.20;;;12.40;99.90;;;;;;5018708;28;20453;-80
2023/11/04 11:42:15;;;;;;;4.23;1.53;;;12.40;1.00;;;;;;5021181;28;20454;-79
2023/11/04 11:44:42;;;;;;;2.60;1.10;;;12.40;1.00;;;;;;5022865;28;21049;-80
2023/11/04 11:47:10;;;;;;;5.63;1.30;;;12.40;1.00;;;;;;5021420;28;20558;-80
2023/11/04 11:49:37;;;;;;;3.93;1.00;;;12.40;1.00;;;;;;5022149;28;20459;-81
2023/11/04 11:52:05;;;;;;;2.87;1.30;;;12.30;1.00;;;;;;5018829;28;21009;-80
2023/11/04 11:54:42;;;;;;;2.80;1.10;;;12.30;1.00;;;;;;5018990;28;20489;-80
2023/11/04 11:57:11;;;;;;;3.90;0.97;;;12.20;1.00;;;;;;5017038;28;20882;-79
2023/11/04 11:59:39;;;;;;;2.93;0.90;;;12.30;99.90;;;;;;5015483;28;20455;-80
2023/11/04 12:19:29;;;;;;;2.37;1.20;;;11.80;99.90;;;;;;5032726;28;20479;-80
2023/11/04 12:36:17;;;;;;;4.10;0.87;;;12.20;99.90;;;;;;5001348;28;20493;-80
2023/11/04 12:38:46;;;;;;;3.87;1.00;;;12.30;1.00;;;;;;5007818;28;20455;-79
2023/11/04 12:41:13;;;;;;;2.10;0.83;;;12.40;10.00;;;;;;5009884;28;20535;-78
2023/11/04 12:43:50;;;;;;;;;;;;;;;;;;;;;
2023/11/04 12:46:59;;;;;;;2.70;1.10;;;12.40;1.00;;;;;;5012751;28;20447;-79
2023/11/04 12:49:26;;;;;;;2.50;0.80;;;12.40;99.90;;;;;;5014319;28;20507;-78
2023/11/04 12:51:53;;;;;;;1.80;1.10;;;12.40;99.90;;;;;;5012374;28;20454;-80
2023/11/04 12:54:34;;;;;;;;;;;;;;;;;;;;;
2023/11/04 12:57:01;;;;;;;2.27;1.00;;;12.20;99.90;;;;;;5009048;28;20970;-79
2023/11/04 13:03:15;;;;;;;1.80;0.80;;;11.90;1.00;;;;;;4985832;28;20527;-80
2023/11/04 13:06:56;;;;;;;3.40;1.10;;;11.90;1.00;;;;;;5013075;28;20478;-79
2023/11/04 13:09:43;;;;;;;1.83;0.80;;;11.70;1.00;;;;;;4940601;28;20457;-78
2023/11/04 13:16:09;;;;;;;3.67;0.93;;;11.60;1.00;;;;;;5010103;28;20906;-79
2023/11/04 13:18:39;;;;;;;2.90;0.90;;;11.50;99.90;;;;;;4992832;28;20520;-79
2023/11/04 13:25:02;;;;;;;2.10;0.90;;;11.30;1.00;;;;;;5005372;28;20461;-79
2023/11/04 13:27:42;;;;;;;1.90;1.00;;;11.10;1.00;;;;;;5014857;28;20511;-81
2023/11/04 13:30:53;;;;;;;2.83;0.90;;;11.10;1.00;;;;;;5014636;28;20459;-80
2023/11/04 13:33:20;;;;;;;2.30;0.87;;;11.00;1.00;;;;;;5016285;28;20459;-78
2023/11/04 13:36:43;;;;;;;2.63;1.10;;;10.90;20.00;;;;;;5008772;28;20439;-81
2023/11/04 13:40:29;;;;;;;;;;;;;;;;;;;;;
2023/11/04 13:47:01;;;;;;;3.80;1.00;;;10.50;99.90;;;;;;4927101;29;20451;-79
2023/11/04 13:49:27;;;;;;;2.20;0.80;;;10.50;99.90;;;;;;4964979;28;20445;-81
2023/11/04 13:52:45;;;;;;;2.13;1.27;;;10.50;99.90;;;;;;5013400;28;20910;-81
2023/11/04 13:55:26;;;;;;;3.20;1.00;;;10.00;99.90;;;;;;4961396;28;20480;-82